Time;durP1;ratioP1;P1;durP2;ratioP2;P2;SDS_P1;SDS_P2;PMS_P1;PMS_P2;Temp;Humidity;BMP_temperature;BMP_pressure;BME280_temperature;BME280_humidity;BME280_pressure;Samples;Min_cycle;Max_cycle;Signal;HPM_P1;HPM_P2
2023/09/27 00:01:33;;;;;;;;;;;21.80;54.90;;;;;;5092133;28;19924;-59
2023/09/27 00:04:00;;;;;;;;;;;21.70;54.80;;;;;;5111252;28;19939;-58
2023/09/27 00:06:27;;;;;;;;;;;21.70;54.80;;;;;;5109645;28;19924;-59
2023/09/27 00:08:54;;;;;;;;;;;21.80;54.90;;;;;;5110568;28;19923;-58
2023/09/27 00:11:21;;;;;;;;;;;21.70;54.80;;;;;;5099708;28;20057;-59
2023/09/27 00:13:48;;;;;;;;;;;21.80;54.90;;;;;;5092820;28;19924;-59
2023/09/27 00:16:16;;;;;;;;;;;21.70;54.80;;;;;;5092048;28;20450;-58
2023/09/27 00:18:43;;;;;;;;;;;21.70;54.80;;;;;;5109136;28;19951;-59
2023/09/27 00:21:10;;;;;;;;;;;21.70;54.80;;;;;;5093250;28;19924;-58
2023/09/27 00:23:37;;;;;;;;;;;21.70;54.80;;;;;;5109948;28;19928;-59
2023/09/27 00:26:03;;;;;;;;;;;21.70;54.80;;;;;;5111576;28;19927;-59
2023/09/27 00:28:30;;;;;;;;;;;21.70;54.90;;;;;;5093634;28;19935;-59
2023/09/27 00:30:57;;;;;;;;;;;21.70;54.90;;;;;;5112215;28;19924;-58
2023/09/27 00:33:25;;;;;;;;;;;21.70;55.00;;;;;;5086399;28;19924;-59
2023/09/27 00:35:52;;;;;;;;;;;21.70;54.90;;;;;;5096991;28;19928;-60
2023/09/27 00:38:19;;;;;;;;;;;21.70;54.90;;;;;;5114341;28;19928;-59
2023/09/27 00:40:46;;;;;;;;;;;21.70;54.90;;;;;;5093641;28;19923;-59
2023/09/27 00:43:25;;;;;;;;;;;21.70;54.90;;;;;;5095768;28;19928;-58
2023/09/27 00:45:52;;;;;;;;;;;21.70;54.90;;;;;;5079951;28;19959;-58
2023/09/27 00:48:19;;;;;;;;;;;21.70;54.90;;;;;;5096027;28;19927;-59
2023/09/27 00:50:47;;;;;;;;;;;21.70;54.90;;;;;;5092098;28;19930;-59
2023/09/27 00:53:14;;;;;;;;;;;21.70;54.90;;;;;;5095201;28;19930;-59
2023/09/27 00:55:41;;;;;;;;;;;21.70;55.00;;;;;;5095491;28;19984;-58
2023/09/27 00:58:07;;;;;;;;;;;21.70;54.90;;;;;;5097948;28;19931;-57
2023/09/27 01:00:34;;;;;;;;;;;21.70;54.90;;;;;;5115390;28;19924;-58
2023/09/27 01:03:01;;;;;;;;;;;21.70;54.90;;;;;;5091163;28;19928;-58
2023/09/27 01:05:28;;;;;;;;;;;21.70;54.90;;;;;;5096895;28;19946;-59
2023/09/27 01:07:56;;;;;;;;;;;21.70;55.00;;;;;;5097208;28;19931;-58
2023/09/27 01:10:23;;;;;;;;;;;21.70;55.00;;;;;;5097337;28;19924;-58
2023/09/27 01:12:49;;;;;;;;;;;21.70;55.00;;;;;;5096418;28;19924;-58
2023/09/27 01:15:16;;;;;;;;;;;21.70;55.00;;;;;;5088638;28;19931;-58
2023/09/27 01:17:55;;;;;;;;;;;21.70;55.00;;;;;;5114614;28;19930;-58
2023/09/27 01:20:21;;;;;;;;;;;21.70;55.00;;;;;;5092619;28;19931;-59
2023/09/27 01:22:51;;;;;;;;;;;21.70;55.00;;;;;;5111962;28;19920;-59
2023/09/27 01:25:18;;;;;;;;;;;21.70;54.90;;;;;;5090064;28;19923;-61
2023/09/27 01:27:45;;;;;;;;;;;21.70;54.90;;;;;;5102879;28;19924;-59
2023/09/27 01:30:12;;;;;;;;;;;21.70;54.90;;;;;;5095219;28;19932;-58
2023/09/27 01:32:39;;;;;;;;;;;21.70;54.90;;;;;;5114533;28;19931;-58
2023/09/27 01:35:06;;;;;;;;;;;21.70;54.80;;;;;;5096640;28;19923;-58
2023/09/27 01:37:33;;;;;;;;;;;21.70;54.80;;;;;;5096065;28;19924;-59
2023/09/27 01:40:01;;;;;;;;;;;21.70;54.80;;;;;;5095419;28;19924;-58
2023/09/27 01:42:28;;;;;;;;;;;21.70;54.80;;;;;;5095319;28;19924;-59
2023/09/27 01:44:54;;;;;;;;;;;21.70;54.80;;;;;;5095412;28;19932;-59
2023/09/27 01:47:21;;;;;;;;;;;21.70;54.80;;;;;;5096450;28;19928;-59
2023/09/27 01:49:48;;;;;;;;;;;21.70;54.90;;;;;;5096090;28;20143;-59
2023/09/27 01:52:15;;;;;;;;;;;21.70;54.80;;;;;;5096293;28;19931;-59
2023/09/27 01:54:41;;;;;;;;;;;21.70;54.80;;;;;;5114559;28;19932;-58
2023/09/27 01:57:10;;;;;;;;;;;21.70;54.80;;;;;;5095953;28;19969;-59
2023/09/27 01:59:36;;;;;;;;;;;21.70;54.80;;;;;;5094012;28;19924;-59
2023/09/27 02:02:03;;;;;;;;;;;21.70;54.80;;;;;;5095264;28;19930;-58
2023/09/27 02:04:30;;;;;;;;;;;21.70;54.80;;;;;;5096080;28;19931;-59
2023/09/27 02:06:57;;;;;;;;;;;21.70;54.80;;;;;;5096366;28;19924;-59
2023/09/27 02:09:23;;;;;;;;;;;21.70;54.80;;;;;;5095742;28;19923;-59
2023/09/27 02:11:50;;;;;;;;;;;21.70;54.80;;;;;;5095813;28;19923;-59
2023/09/27 02:14:18;;;;;;;;;;;21.70;54.80;;;;;;5092368;28;19931;-59
2023/09/27 02:16:46;;;;;;;;;;;21.70;55.40;;;;;;5075122;28;19955;-60
2023/09/27 02:19:13;;;;;;;;;;;21.70;54.80;;;;;;5095058;28;20034;-60
2023/09/27 02:21:40;;;;;;;;;;;21.70;54.80;;;;;;5091901;28;19924;-59
2023/09/27 02:24:07;;;;;;;;;;;21.70;54.80;;;;;;5087487;28;19930;-60
2023/09/27 02:26:34;;;;;;;;;;;21.70;54.70;;;;;;5103443;28;19924;-61
2023/09/27 02:29:01;;;;;;;;;;;21.70;54.70;;;;;;5114139;28;20490;-59
2023/09/27 02:31:29;;;;;;;;;;;21.70;54.70;;;;;;5095805;28;19923;-60
2023/09/27 02:33:56;;;;;;;;;;;21.70;54.70;;;;;;5114265;28;19924;-59
2023/09/27 02:36:23;;;;;;;;;;;21.70;54.70;;;;;;5095089;28;19924;-60
2023/09/27 02:38:50;;;;;;;;;;;21.70;54.70;;;;;;5095673;28;19923;-59
2023/09/27 02:41:17;;;;;;;;;;;21.70;54.70;;;;;;5095794;28;19930;-61
2023/09/27 02:43:43;;;;;;;;;;;21.70;54.70;;;;;;5094279;28;20304;-59
2023/09/27 02:46:10;;;;;;;;;;;21.70;54.70;;;;;;5103131;28;20174;-59
2023/09/27 02:48:38;;;;;;;;;;;21.70;54.70;;;;;;5114067;28;19935;-60
2023/09/27 02:51:05;;;;;;;;;;;21.70;54.70;;;;;;5098286;28;19924;-59
2023/09/27 02:53:32;;;;;;;;;;;21.70;54.70;;;;;;5112650;28;19939;-57
2023/09/27 02:55:59;;;;;;;;;;;21.70;54.70;;;;;;5094586;28;19928;-59
2023/09/27 02:58:27;;;;;;;;;;;21.70;54.60;;;;;;5094880;28;19923;-60
2023/09/27 03:00:53;;;;;;;;;;;21.70;54.70;;;;;;5092597;28;19938;-59
2023/09/27 03:03:20;;;;;;;;;;;21.70;54.60;;;;;;5094835;28;19927;-59
2023/09/27 03:05:49;;;;;;;;;;;21.70;54.60;;;;;;5093954;28;19928;-58
2023/09/27 03:08:16;;;;;;;;;;;21.60;54.60;;;;;;5094591;28;19939;-58
2023/09/27 03:10:43;;;;;;;;;;;21.60;54.50;;;;;;5091357;28;19930;-59
2023/09/27 03:13:09;;;;;;;;;;;21.60;54.50;;;;;;5094735;28;19924;-57
2023/09/27 03:15:36;;;;;;;;;;;21.70;54.60;;;;;;5094227;28;19967;-58
2023/09/27 03:18:03;;;;;;;;;;;21.60;54.50;;;;;;5086649;28;19999;-58
2023/09/27 03:20:31;;;;;;;;;;;21.60;54.50;;;;;;5094648;28;20023;-57
2023/09/27 03:22:59;;;;;;;;;;;21.60;54.50;;;;;;5094661;28;20046;-58
2023/09/27 03:25:26;;;;;;;;;;;21.60;54.70;;;;;;5094604;28;19988;-60
2023/09/27 03:27:53;;;;;;;;;;;21.60;54.50;;;;;;5093986;28;19923;-59
2023/09/27 03:30:20;;;;;;;;;;;21.60;54.40;;;;;;5093827;28;19926;-58
2023/09/27 03:32:47;;;;;;;;;;;21.60;54.40;;;;;;5112747;28;19930;-58
2023/09/27 03:35:13;;;;;;;;;;;21.60;54.40;;;;;;5089320;28;19924;-58
2023/09/27 03:37:40;;;;;;;;;;;21.60;54.40;;;;;;5099468;28;19924;-58
2023/09/27 03:40:13;;;;;;;;;;;21.60;54.30;;;;;;5094245;28;19924;-59
2023/09/27 03:42:41;;;;;;;;;;;21.60;54.40;;;;;;5086608;28;19924;-58
2023/09/27 03:45:08;;;;;;;;;;;21.60;54.30;;;;;;5093679;28;19928;-59
2023/09/27 03:47:35;;;;;;;;;;;21.60;54.30;;;;;;5093939;28;19985;-59
2023/09/27 03:50:02;;;;;;;;;;;21.60;54.30;;;;;;5112774;28;19931;-58
2023/09/27 03:52:29;;;;;;;;;;;21.60;54.20;;;;;;5088685;28;19980;-58
2023/09/27 03:54:56;;;;;;;;;;;21.60;54.20;;;;;;5111779;28;19927;-58
2023/09/27 03:57:24;;;;;;;;;;;21.60;54.30;;;;;;5093962;28;19935;-58
2023/09/27 03:59:51;;;;;;;;;;;21.60;54.20;;;;;;5112730;28;19931;-58
2023/09/27 04:02:18;;;;;;;;;;;21.60;54.80;;;;;;5090995;28;19927;-59
2023/09/27 04:04:45;;;;;;;;;;;21.60;54.20;;;;;;5103124;28;19931;-58
2023/09/27 04:07:11;;;;;;;;;;;21.60;54.20;;;;;;5093948;28;19923;-59
2023/09/27 04:09:38;;;;;;;;;;;21.60;54.10;;;;;;5089310;28;19928;-59
2023/09/27 04:12:05;;;;;;;;;;;21.60;54.10;;;;;;5090383;28;19928;-59
2023/09/27 04:14:33;;;;;;;;;;;21.60;54.10;;;;;;5091274;28;19935;-59
2023/09/27 04:17:01;;;;;;;;;;;21.60;54.10;;;;;;5067935;28;19942;-59
2023/09/27 04:19:28;;;;;;;;;;;21.60;54.10;;;;;;5111430;28;19928;-59
2023/09/27 04:21:55;;;;;;;;;;;21.60;54.10;;;;;;5110837;28;19947;-59
2023/09/27 04:24:21;;;;;;;;;;;21.60;54.10;;;;;;5098074;28;20033;-59
2023/09/27 04:26:48;;;;;;;;;;;21.60;54.10;;;;;;5093128;28;19924;-59
2023/09/27 04:29:15;;;;;;;;;;;21.60;54.10;;;;;;5090447;28;19935;-59
2023/09/27 04:31:43;;;;;;;;;;;21.60;54.10;;;;;;5092514;28;20261;-60
2023/09/27 04:34:10;;;;;;;;;;;21.60;54.10;;;;;;5095685;28;19924;-59
2023/09/27 04:36:37;;;;;;;;;;;21.60;54.10;;;;;;5111701;28;19931;-59
2023/09/27 04:39:05;;;;;;;;;;;21.50;53.90;;;;;;5092421;28;19985;-59
2023/09/27 04:41:32;;;;;;;;;;;21.60;54.00;;;;;;5093269;28;19934;-59
2023/09/27 04:43:59;;;;;;;;;;;21.50;53.90;;;;;;5112032;28;19924;-59
2023/09/27 04:46:26;;;;;;;;;;;21.60;54.00;;;;;;5110392;28;19923;-60
2023/09/27 04:48:54;;;;;;;;;;;21.50;53.90;;;;;;5093462;28;19927;-59
2023/09/27 04:51:21;;;;;;;;;;;21.50;53.90;;;;;;5091166;28;19924;-60
2023/09/27 04:53:48;;;;;;;;;;;21.50;53.90;;;;;;5075994;28;19924;-59
2023/09/27 04:56:15;;;;;;;;;;;21.50;53.90;;;;;;5092708;28;19934;-59
2023/09/27 04:58:42;;;;;;;;;;;21.50;53.80;;;;;;5084038;28;19973;-59
2023/09/27 05:01:09;;;;;;;;;;;21.50;53.80;;;;;;5094896;28;19924;-59
2023/09/27 05:03:36;;;;;;;;;;;21.50;53.80;;;;;;5109675;28;19957;-59
2023/09/27 05:06:04;;;;;;;;;;;21.50;53.90;;;;;;5093346;28;19920;-59
2023/09/27 05:08:31;;;;;;;;;;;21.50;53.90;;;;;;5110738;28;19924;-59
2023/09/27 05:10:58;;;;;;;;;;;21.50;53.90;;;;;;5093276;28;19923;-60
2023/09/27 05:13:24;;;;;;;;;;;21.50;53.90;;;;;;5093359;28;19977;-59
2023/09/27 05:15:52;;;;;;;;;;;21.50;53.80;;;;;;5110659;28;19931;-59
2023/09/27 05:18:18;;;;;;;;;;;21.50;53.80;;;;;;5094358;28;19924;-60
2023/09/27 05:20:45;;;;;;;;;;;21.50;53.90;;;;;;5088886;28;19932;-59
2023/09/27 05:23:13;;;;;;;;;;;21.50;53.90;;;;;;5090927;28;19923;-59
2023/09/27 05:25:40;;;;;;;;;;;21.50;53.90;;;;;;5093114;28;19924;-59
2023/09/27 05:28:07;;;;;;;;;;;21.50;53.90;;;;;;5096803;28;19923;-59
2023/09/27 05:30:34;;;;;;;;;;;21.50;53.80;;;;;;5095978;28;19947;-59
2023/09/27 05:33:00;;;;;;;;;;;21.50;53.90;;;;;;5096364;28;19924;-59
2023/09/27 05:35:27;;;;;;;;;;;21.50;53.80;;;;;;5093311;28;19977;-60
2023/09/27 05:37:54;;;;;;;;;;;21.50;53.80;;;;;;5096854;28;19931;-59
2023/09/27 05:40:22;;;;;;;;;;;21.50;53.90;;;;;;5113887;28;19924;-60
2023/09/27 05:42:50;;;;;;;;;;;21.50;53.80;;;;;;5114470;28;19931;-59
2023/09/27 05:45:17;;;;;;;;;;;21.50;53.80;;;;;;5092427;28;20340;-60
2023/09/27 05:47:44;;;;;;;;;;;21.50;53.80;;;;;;5100736;28;19927;-59
2023/09/27 05:50:12;;;;;;;;;;;21.50;53.80;;;;;;5113465;28;19938;-60
2023/09/27 05:52:39;;;;;;;;;;;21.50;53.90;;;;;;5096273;28;19932;-60
2023/09/27 05:55:06;;;;;;;;;;;21.50;53.80;;;;;;5096547;28;20304;-59
2023/09/27 05:57:35;;;;;;;;;;;21.50;53.80;;;;;;5093762;28;20058;-59
2023/09/27 06:00:08;;;;;;;;;;;21.50;53.80;;;;;;5113120;28;19930;-58
2023/09/27 06:02:34;;;;;;;;;;;21.50;53.80;;;;;;5095517;28;19924;-58
2023/09/27 06:05:03;;;;;;;;;;;21.50;53.90;;;;;;5096706;28;19927;-59
2023/09/27 06:07:30;;;;;;;;;;;21.50;53.90;;;;;;5113271;28;19932;-59
2023/09/27 06:09:56;;;;;;;;;;;21.50;53.80;;;;;;5095583;28;19941;-58
2023/09/27 06:12:23;;;;;;;;;;;21.50;53.90;;;;;;5093539;28;19924;-61
2023/09/27 06:14:51;;;;;;;;;;;21.50;53.90;;;;;;5102730;28;19934;-60
2023/09/27 06:17:18;;;;;;;;;;;21.50;53.90;;;;;;5094625;28;19930;-60
2023/09/27 06:19:45;;;;;;;;;;;21.50;53.90;;;;;;5090293;28;19931;-59
2023/09/27 06:22:13;;;;;;;;;;;21.50;53.90;;;;;;5092870;28;19973;-60
2023/09/27 06:24:40;;;;;;;;;;;21.50;53.90;;;;;;5091363;28;20014;-61
2023/09/27 06:27:07;;;;;;;;;;;21.50;53.90;;;;;;5091315;28;19928;-61
2023/09/27 06:29:34;;;;;;;;;;;21.50;53.90;;;;;;5090998;28;20292;-60
2023/09/27 06:32:03;;;;;;;;;;;21.60;54.00;;;;;;5093949;28;19924;-60
2023/09/27 06:34:29;;;;;;;;;;;21.60;54.00;;;;;;5092588;28;19931;-61
2023/09/27 06:36:56;;;;;;;;;;;21.60;54.00;;;;;;5108976;28;19934;-60
2023/09/27 06:39:24;;;;;;;;;;;21.60;54.00;;;;;;5090705;28;20224;-59
2023/09/27 06:41:51;;;;;;;;;;;21.60;54.50;;;;;;5090903;28;20392;-60
2023/09/27 06:44:19;;;;;;;;;;;21.60;53.90;;;;;;5083334;28;19924;-61
2023/09/27 06:46:46;;;;;;;;;;;21.60;54.00;;;;;;5084683;28;20073;-61
2023/09/27 06:49:15;;;;;;;;;;;21.60;54.00;;;;;;5089629;28;19924;-61
2023/09/27 06:51:43;;;;;;;;;;;21.60;54.00;;;;;;5087670;28;19924;-61
2023/09/27 06:54:10;;;;;;;;;;;21.60;54.00;;;;;;5103628;28;19924;-61
2023/09/27 06:56:37;;;;;;;;;;;21.60;54.00;;;;;;5094056;28;19927;-61
2023/09/27 06:59:03;;;;;;;;;;;21.60;54.10;;;;;;5106943;28;19924;-61
2023/09/27 07:01:30;;;;;;;;;;;21.60;54.10;;;;;;5109601;28;19931;-61
2023/09/27 07:03:57;;;;;;;;;;;21.60;54.00;;;;;;5091049;28;19935;-60
2023/09/27 07:06:25;;;;;;;;;;;21.60;54.10;;;;;;5090346;28;19927;-60
2023/09/27 07:08:57;;;;;;;;;;;21.60;54.10;;;;;;5086778;28;19927;-61
2023/09/27 07:11:24;;;;;;;;;;;21.60;54.10;;;;;;5088386;28;20122;-61
2023/09/27 07:13:51;;;;;;;;;;;21.70;54.10;;;;;;5085228;28;19928;-61
2023/09/27 07:16:21;;;;;;;;;;;21.60;54.10;;;;;;5107733;28;19927;-61
2023/09/27 07:18:48;;;;;;;;;;;21.70;54.20;;;;;;5086757;28;19966;-61
2023/09/27 07:21:19;;;;;;;;;;;21.70;54.20;;;;;;5093817;28;19959;-61
2023/09/27 07:23:49;;;;;;;;;;;21.70;54.20;;;;;;5089175;28;19931;-61
2023/09/27 07:26:16;;;;;;;;;;;21.70;54.20;;;;;;5098774;28;20120;-61
2023/09/27 07:28:43;;;;;;;;;;;21.70;54.20;;;;;;5088234;28;19920;-61
2023/09/27 07:31:11;;;;;;;;;;;21.70;54.20;;;;;;5091183;28;19924;-62
2023/09/27 07:33:38;;;;;;;;;;;21.70;54.30;;;;;;5090276;28;20014;-62
2023/09/27 07:36:05;;;;;;;;;;;21.70;54.30;;;;;;5092993;28;19967;-60
2023/09/27 07:38:32;;;;;;;;;;;21.70;54.30;;;;;;5089303;28;19935;-61
2023/09/27 07:41:00;;;;;;;;;;;21.70;54.30;;;;;;5091033;28;19924;-61
2023/09/27 07:43:27;;;;;;;;;;;21.70;54.30;;;;;;5090150;28;19978;-61
2023/09/27 07:45:54;;;;;;;;;;;21.70;54.40;;;;;;5109975;27;19928;-61
2023/09/27 07:48:21;;;;;;;;;;;21.80;54.50;;;;;;5103942;28;19928;-61
2023/09/27 07:50:48;;;;;;;;;;;21.70;54.40;;;;;;5091853;28;19981;-61
2023/09/27 07:53:15;;;;;;;;;;;21.80;54.50;;;;;;5092421;28;19924;-61
2023/09/27 07:55:48;;;;;;;;;;;21.70;54.50;;;;;;5086904;28;19934;-61
2023/09/27 07:58:16;;;;;;;;;;;21.80;54.50;;;;;;5084772;28;19983;-61
2023/09/27 08:00:43;;;;;;;;;;;21.80;54.50;;;;;;5087289;28;19931;-61
2023/09/27 08:03:10;;;;;;;;;;;21.80;54.60;;;;;;5075584;28;19923;-61
2023/09/27 08:05:42;;;;;;;;;;;21.80;54.50;;;;;;5088067;28;19973;-61
2023/09/27 08:08:10;;;;;;;;;;;21.80;54.60;;;;;;5096425;28;19974;-61
2023/09/27 08:10:43;;;;;;;;;;;21.80;54.60;;;;;;5104885;28;19932;-60
2023/09/27 08:13:10;;;;;;;;;;;21.80;54.70;;;;;;5092806;28;19971;-60
2023/09/27 08:15:39;;;;;;;;;;;21.80;54.70;;;;;;5088854;28;19924;-60
2023/09/27 08:18:06;;;;;;;;;;;21.90;54.80;;;;;;5100399;28;19931;-61
2023/09/27 08:20:33;;;;;;;;;;;21.90;54.80;;;;;;5108203;28;20007;-61
2023/09/27 08:23:00;;;;;;;;;;;21.90;54.80;;;;;;5089509;28;19924;-61
2023/09/27 08:25:27;;;;;;;;;;;21.90;54.90;;;;;;5090833;28;20015;-61
2023/09/27 08:27:54;;;;;;;;;;;21.90;54.90;;;;;;5088448;28;19935;-60
2023/09/27 08:30:21;;;;;;;;;;;21.90;55.00;;;;;;5086701;28;19924;-60
2023/09/27 08:32:49;;;;;;;;;;;21.90;55.10;;;;;;5108434;28;19927;-60
2023/09/27 08:35:16;;;;;;;;;;;21.90;55.10;;;;;;5088155;28;19931;-62
2023/09/27 08:37:43;;;;;;;;;;;21.90;55.30;;;;;;5102912;28;19931;-62
2023/09/27 08:40:12;;;;;;;;;;;22.00;55.30;;;;;;5105679;28;19924;-62
2023/09/27 08:42:39;;;;;;;;;;;22.00;55.30;;;;;;5104585;28;20334;-61
2023/09/27 08:45:06;;;;;;;;;;;21.90;55.20;;;;;;5083994;28;20230;-61
2023/09/27 08:47:35;;;;;;;;;;;22.00;55.30;;;;;;5089911;28;19930;-60
2023/09/27 08:50:04;;;;;;;;;;;21.90;55.30;;;;;;5090237;28;19927;-61
2023/09/27 08:52:31;;;;;;;;;;;22.00;55.40;;;;;;5091881;28;20015;-61
2023/09/27 08:54:58;;;;;;;;;;;22.00;55.40;;;;;;5092958;28;19928;-62
2023/09/27 08:57:26;;;;;;;;;;;22.00;55.40;;;;;;5093922;28;19936;-61
2023/09/27 08:59:52;;;;;;;;;;;22.00;55.50;;;;;;5089204;28;19920;-61
2023/09/27 09:02:19;;;;;;;;;;;22.00;55.50;;;;;;5088884;28;19934;-61
2023/09/27 09:04:46;;;;;;;;;;;22.00;55.50;;;;;;5111762;28;19928;-61
2023/09/27 09:07:14;;;;;;;;;;;22.00;55.50;;;;;;5113565;28;19923;-61
2023/09/27 09:09:41;;;;;;;;;;;22.00;55.60;;;;;;5108689;28;19923;-61
2023/09/27 09:12:09;;;;;;;;;;;22.00;55.60;;;;;;5092359;28;19924;-60
2023/09/27 09:14:39;;;;;;;;;;;22.00;55.50;;;;;;5086382;28;20379;-60
2023/09/27 09:17:07;;;;;;;;;;;22.00;55.50;;;;;;5093561;28;19924;-60
2023/09/27 09:19:38;;;;;;;;;;;22.00;55.60;;;;;;5093758;28;19939;-61
2023/09/27 09:22:08;;;;;;;;;;;22.00;55.60;;;;;;5110166;28;19974;-61
2023/09/27 09:24:36;;;;;;;;;;;22.10;55.80;;;;;;5091159;28;19938;-59
2023/09/27 09:27:07;;;;;;;;;;;22.10;55.80;;;;;;5093524;28;19969;-61
2023/09/27 09:29:47;;;;;;;;;;;22.10;55.80;;;;;;5105391;28;19935;-60
2023/09/27 09:32:15;;;;;;;;;;;22.00;55.70;;;;;;5112052;28;19930;-60
2023/09/27 09:34:43;;;;;;;;;;;22.00;55.70;;;;;;5107157;28;19935;-60
2023/09/27 09:37:16;;;;;;;;;;;22.10;55.90;;;;;;5092065;28;19927;-60
2023/09/27 09:39:44;;;;;;;;;;;22.10;55.90;;;;;;5093655;28;19919;-61
2023/09/27 09:42:11;;;;;;;;;;;22.10;56.00;;;;;;5093906;28;19924;-61
2023/09/27 09:44:38;;;;;;;;;;;22.10;56.10;;;;;;5100094;28;19936;-60
2023/09/27 09:47:09;;;;;;;;;;;22.10;56.10;;;;;;5091885;28;20258;-60
2023/09/27 09:49:36;;;;;;;;;;;22.20;56.20;;;;;;5104702;28;19924;-59
2023/09/27 09:52:03;;;;;;;;;;;22.10;56.10;;;;;;5103266;28;19924;-59
2023/09/27 09:54:36;;;;;;;;;;;22.10;56.30;;;;;;5088546;28;19928;-59
2023/09/27 09:57:05;;;;;;;;;;;22.10;56.30;;;;;;5090461;28;19930;-61
2023/09/27 09:59:33;;;;;;;;;;;22.20;56.40;;;;;;5089339;28;20022;-61
2023/09/27 10:02:00;;;;;;;;;;;22.20;56.40;;;;;;5099130;28;19928;-61
2023/09/27 10:04:27;;;;;;;;;;;22.20;56.40;;;;;;5108827;28;19981;-59
2023/09/27 10:06:54;;;;;;;;;;;22.20;56.40;;;;;;5094301;28;19935;-61
2023/09/27 10:09:27;;;;;;;;;;;22.20;56.40;;;;;;5093307;28;21347;-61
2023/09/27 10:11:55;;;;;;;;;;;22.20;56.40;;;;;;5087206;28;19924;-60
2023/09/27 10:14:23;;;;;;;;;;;22.20;56.50;;;;;;5086177;28;19932;-61
2023/09/27 10:16:50;;;;;;;;;;;22.30;56.60;;;;;;5089880;28;19940;-61
2023/09/27 10:19:25;;;;;;;;;;;22.30;56.60;;;;;;5093254;28;20035;-63
2023/09/27 10:22:02;;;;;;;;;;;22.30;56.70;;;;;;5092989;28;20408;-61
2023/09/27 10:24:29;;;;;;;;;;;22.30;56.70;;;;;;5111341;28;19959;-60
2023/09/27 10:26:55;;;;;;;;;;;22.30;56.70;;;;;;5093613;28;19920;-62
2023/09/27 10:29:24;;;;;;;;;;;22.30;56.80;;;;;;5093196;28;19928;-59
2023/09/27 10:32:20;;;;;;;;;;;22.30;56.80;;;;;;5106202;28;19932;-61
2023/09/27 10:34:48;;;;;;;;;;;22.30;56.70;;;;;;5088089;28;19927;-60
2023/09/27 10:37:15;;;;;;;;;;;22.30;56.60;;;;;;5092893;28;19999;-60
2023/09/27 10:39:41;;;;;;;;;;;22.30;56.60;;;;;;5091194;28;19924;-59
2023/09/27 10:42:08;;;;;;;;;;;22.30;56.60;;;;;;5092332;28;19931;-60
2023/09/27 10:44:40;;;;;;;;;;;22.30;56.50;;;;;;5084135;28;19932;-61
2023/09/27 10:47:08;;;;;;;;;;;22.30;56.40;;;;;;5088996;28;19934;-60
2023/09/27 10:49:38;;;;;;;;;;;22.30;56.40;;;;;;5089014;28;20019;-60
2023/09/27 10:52:05;;;;;;;;;;;22.30;56.40;;;;;;5093537;28;19924;-60
2023/09/27 10:54:33;;;;;;;;;;;22.30;56.40;;;;;;5091408;28;19924;-60
2023/09/27 10:57:00;;;;;;;;;;;22.30;56.40;;;;;;5112051;28;19920;-60
2023/09/27 10:59:27;;;;;;;;;;;22.30;56.30;;;;;;5091452;28;20018;-60
2023/09/27 11:01:55;;;;;;;;;;;22.30;56.30;;;;;;5085727;28;19943;-61
2023/09/27 11:04:22;;;;;;;;;;;22.30;56.30;;;;;;5092661;28;19924;-61
2023/09/27 11:06:49;;;;;;;;;;;22.30;56.40;;;;;;5084640;28;19964;-60
2023/09/27 11:09:19;;;;;;;;;;;22.30;56.40;;;;;;5088793;28;19963;-60
2023/09/27 11:11:46;;;;;;;;;;;22.30;56.30;;;;;;5096840;28;19954;-60
2023/09/27 11:14:13;;;;;;;;;;;22.30;56.40;;;;;;5091508;28;19924;-59
2023/09/27 11:16:40;;;;;;;;;;;22.30;56.40;;;;;;5091947;28;19931;-60
2023/09/27 11:19:08;;;;;;;;;;;22.30;56.40;;;;;;5109911;28;19931;-60
2023/09/27 11:21:35;;;;;;;;;;;22.30;56.50;;;;;;5095383;28;19927;-60
2023/09/27 11:24:03;;;;;;;;;;;22.30;56.50;;;;;;5088761;28;20317;-60
2023/09/27 11:26:30;;;;;;;;;;;22.30;56.40;;;;;;5104196;28;19931;-60
2023/09/27 11:28:57;;;;;;;;;;;22.30;56.30;;;;;;5092589;28;19934;-60
2023/09/27 11:31:24;;;;;;;;;;;22.30;56.30;;;;;;5090417;28;19936;-60
2023/09/27 11:33:52;;;;;;;;;;;22.30;56.20;;;;;;5087313;28;19928;-59
2023/09/27 11:36:20;;;;;;;;;;;22.30;56.10;;;;;;5089890;28;19935;-60
2023/09/27 11:38:50;;;;;;;;;;;22.30;56.10;;;;;;5088343;28;20319;-60
2023/09/27 11:41:18;;;;;;;;;;;22.30;56.10;;;;;;5090375;28;19928;-60
2023/09/27 11:43:45;;;;;;;;;;;22.30;56.10;;;;;;5087372;28;19923;-60
2023/09/27 11:46:12;;;;;;;;;;;22.40;56.20;;;;;;5087597;28;19961;-60
2023/09/27 11:48:41;;;;;;;;;;;22.40;56.20;;;;;;5087834;28;19924;-60
2023/09/27 11:51:11;;;;;;;;;;;22.40;56.20;;;;;;5107890;28;19924;-60
2023/09/27 11:53:39;;;;;;;;;;;22.40;56.20;;;;;;5108045;28;19931;-60
2023/09/27 11:56:06;;;;;;;;;;;22.40;56.10;;;;;;5087868;28;19934;-60
2023/09/27 11:58:33;;;;;;;;;;;22.40;56.10;;;;;;5089605;28;19928;-61
2023/09/27 12:01:00;;;;;;;;;;;22.40;56.10;;;;;;5088932;28;19923;-61
2023/09/27 12:03:28;;;;;;;;;;;22.40;56.00;;;;;;5086623;28;20331;-61
2023/09/27 12:05:54;;;;;;;;;;;22.40;55.90;;;;;;5088002;28;19931;-62
2023/09/27 12:08:21;;;;;;;;;;;22.40;55.80;;;;;;5108321;28;19923;-62
2023/09/27 12:10:50;;;;;;;;;;;22.40;55.80;;;;;;5090979;28;20032;-62
2023/09/27 12:13:16;;;;;;;;;;;22.40;55.80;;;;;;5097732;28;19923;-61
2023/09/27 12:15:43;;;;;;;;;;;22.40;55.80;;;;;;5107330;28;19967;-60
2023/09/27 12:18:10;;;;;;;;;;;22.50;56.00;;;;;;5089844;28;19955;-60
2023/09/27 12:20:39;;;;;;;;;;;22.50;56.00;;;;;;5095859;28;20048;-60
2023/09/27 12:23:06;;;;;;;;;;;22.50;56.10;;;;;;5109440;28;19974;-61
2023/09/27 12:25:33;;;;;;;;;;;22.50;56.30;;;;;;5088612;28;20030;-60
2023/09/27 12:28:03;;;;;;;;;;;22.60;56.50;;;;;;5088600;28;19976;-61
2023/09/27 12:30:29;;;;;;;;;;;22.60;56.40;;;;;;5087759;28;19932;-60
2023/09/27 12:32:56;;;;;;;;;;;22.60;56.40;;;;;;5081752;28;19924;-60
2023/09/27 12:35:23;;;;;;;;;;;22.60;56.30;;;;;;5107358;28;19932;-61
2023/09/27 12:37:50;;;;;;;;;;;22.60;56.30;;;;;;5086568;28;19928;-61
2023/09/27 12:40:17;;;;;;;;;;;22.60;56.20;;;;;;5088799;28;19931;-60
2023/09/27 12:42:44;;;;;;;;;;;22.60;56.10;;;;;;5090344;28;19919;-60
2023/09/27 12:45:12;;;;;;;;;;;22.60;56.00;;;;;;5087711;28;19923;-59
2023/09/27 12:47:41;;;;;;;;;;;22.60;56.00;;;;;;5088834;28;19928;-60
2023/09/27 12:50:08;;;;;;;;;;;22.60;56.10;;;;;;5091512;28;19930;-60
2023/09/27 12:52:35;;;;;;;;;;;22.60;56.10;;;;;;5091465;28;19931;-61
2023/09/27 12:55:02;;;;;;;;;;;22.50;56.00;;;;;;5109531;28;20000;-58
2023/09/27 12:57:29;;;;;;;;;;;22.50;56.00;;;;;;5089177;28;19931;-61
2023/09/27 12:59:56;;;;;;;;;;;22.50;56.10;;;;;;5091152;28;19962;-60
2023/09/27 13:02:25;;;;;;;;;;;22.50;56.10;;;;;;5086977;28;19931;-62
2023/09/27 13:04:52;;;;;;;;;;;22.50;56.00;;;;;;5089603;28;19935;-61
2023/09/27 13:07:18;;;;;;;;;;;22.50;56.00;;;;;;5085639;28;19935;-60
2023/09/27 13:09:45;;;;;;;;;;;22.60;56.10;;;;;;5089804;28;19932;-59
2023/09/27 13:12:12;;;;;;;;;;;22.50;56.00;;;;;;5107272;28;20022;-60
2023/09/27 13:14:39;;;;;;;;;;;22.60;56.10;;;;;;5085153;28;19928;-59
2023/09/27 13:17:06;;;;;;;;;;;22.60;56.00;;;;;;5089851;28;19924;-61
2023/09/27 13:19:34;;;;;;;;;;;22.60;56.00;;;;;;5085177;28;19931;-60
2023/09/27 13:22:01;;;;;;;;;;;22.60;56.00;;;;;;5087536;28;19930;-59
2023/09/27 13:24:28;;;;;;;;;;;22.60;56.10;;;;;;5087746;28;19924;-62
2023/09/27 13:26:55;;;;;;;;;;;22.60;56.00;;;;;;5089367;28;19931;-60
2023/09/27 13:29:21;;;;;;;;;;;22.60;56.10;;;;;;5086405;28;19927;-61
2023/09/27 13:31:49;;;;;;;;;;;22.60;56.00;;;;;;5088670;28;19924;-60
2023/09/27 13:34:16;;;;;;;;;;;22.60;56.00;;;;;;5086954;28;19977;-61
2023/09/27 13:36:44;;;;;;;;;;;22.60;56.10;;;;;;5090003;28;19965;-61
2023/09/27 13:39:16;;;;;;;;;;;22.60;56.10;;;;;;5089553;28;19938;-61
2023/09/27 13:41:44;;;;;;;;;;;22.60;56.70;;;;;;5089586;28;19924;-60
2023/09/27 13:44:11;;;;;;;;;;;22.60;56.10;;;;;;5091326;28;19938;-61
2023/09/27 13:46:38;;;;;;;;;;;22.60;56.10;;;;;;5105671;28;20030;-60
2023/09/27 13:49:04;;;;;;;;;;;22.60;56.10;;;;;;5091330;28;19936;-60
2023/09/27 13:51:34;;;;;;;;;;;22.60;56.10;;;;;;5110552;28;19924;-60
2023/09/27 13:54:03;;;;;;;;;;;22.60;56.10;;;;;;5109324;28;19935;-61
2023/09/27 13:56:30;;;;;;;;;;;22.60;56.70;;;;;;5090811;28;19932;-60
2023/09/27 13:58:57;;;;;;;;;;;22.60;56.20;;;;;;5091604;28;19930;-60
2023/09/27 14:01:24;;;;;;;;;;;22.60;56.30;;;;;;5109512;28;19924;-60
2023/09/27 14:03:51;;;;;;;;;;;22.60;56.30;;;;;;5091589;28;19930;-60
2023/09/27 14:06:17;;;;;;;;;;;22.60;56.30;;;;;;5088830;28;20130;-60
2023/09/27 14:08:44;;;;;;;;;;;22.60;56.20;;;;;;5091807;28;19985;-61
2023/09/27 14:11:14;;;;;;;;;;;22.60;56.20;;;;;;5091003;28;19963;-60
2023/09/27 14:13:41;;;;;;;;;;;22.60;56.10;;;;;;5091701;28;19923;-61
2023/09/27 14:16:09;;;;;;;;;;;22.60;56.00;;;;;;5090432;28;19924;-61
2023/09/27 14:18:36;;;;;;;;;;;22.60;55.90;;;;;;5089548;28;19931;-62